To NAV CANADA Home Page Login to a new session Search on AWWS site Feedback and Comments Disclaimer Vers la page française équivalente Tips FAQ What's new on the site To the Forecasts and Observations / NOTAM section To "File a Flight Plan" website Publications and other links Update of the User's profile FIC Telephone Numbers My Weather Data Folder Route Weather Data Regional Weather Data Local Weather Data To the Forecasts and Observations / NOTAM section
Request Generated 05/01/2016 at 00:32:24 UTC . Weather information available at that time is displayed.

METAR/TAF

CALGARY/SPRINGBANK/AB    (show WxCam)

METAR CYBW 010000Z AUTO VRB04KT 9SM SCT070 13/M01 A3028 RMK SLP282
DENSITY ALT 4100FT=
METAR CYBW 302300Z AUTO VRB02KT 9SM OVC060 11/M00 A3029 RMK SLP287=
METAR CYBW 302200Z AUTO VRB03KT 9SM OVC060 11/00 A3028 RMK SLP285=

TAF CYBW 302338Z 0100/0104 VRB03KT P6SM BKN060
FM010300 VRB03KT P6SM FEW060
RMK FCST BASED ON AUTO OBS. NXT FCST WILL BE ISSUED AT 011145Z=
Your time UTC time
Weather data provided by Environment Canada and NAV CANADA